createdAt,value
2022-08-18T00:02:02.304Z,28.60
2022-08-18T00:04:35.505Z,28.60
2022-08-18T00:07:04.419Z,28.60
2022-08-18T00:09:32.688Z,28.60
2022-08-18T00:12:03.166Z,28.50
2022-08-18T00:14:30.058Z,28.60
2022-08-18T00:16:56.921Z,28.50
2022-08-18T00:19:46.990Z,28.50
2022-08-18T00:22:15.787Z,28.50
2022-08-18T00:24:48.437Z,28.40
2022-08-18T00:27:38.187Z,28.30
2022-08-18T00:30:10.488Z,28.50
2022-08-18T00:32:41.598Z,28.40
2022-08-18T00:35:15.928Z,28.40
2022-08-18T00:37:43.129Z,28.40
2022-08-18T00:40:13.578Z,28.40
2022-08-18T00:42:44.185Z,28.30
2022-08-18T00:45:18.433Z,28.30
2022-08-18T00:47:45.520Z,28.30
2022-08-18T00:50:22.157Z,28.30
2022-08-18T00:53:04.944Z,28.20
2022-08-18T00:55:33.355Z,28.20
2022-08-18T00:58:10.142Z,28.20
2022-08-18T01:00:38.179Z,28.10
2022-08-18T01:03:10.057Z,28.10
2022-08-18T01:05:43.290Z,28.00
2022-08-18T01:08:14.435Z,28.10
2022-08-18T01:10:41.622Z,28.10
2022-08-18T01:13:09.019Z,28.00
2022-08-18T01:15:36.293Z,27.90
2022-08-18T01:18:26.013Z,28.00
2022-08-18T01:21:19.307Z,28.00
2022-08-18T01:23:47.837Z,27.90
2022-08-18T01:26:16.824Z,27.90
2022-08-18T01:28:47.662Z,27.80
2022-08-18T01:31:31.349Z,27.80
2022-08-18T01:33:58.914Z,27.80
2022-08-18T01:36:25.819Z,27.80
2022-08-18T01:38:53.542Z,27.80
2022-08-18T01:41:29.500Z,27.80
2022-08-18T01:43:59.068Z,27.80
2022-08-18T01:46:27.724Z,27.80
2022-08-18T01:48:54.994Z,27.80
2022-08-18T01:51:40.108Z,27.70
2022-08-18T01:54:11.210Z,27.80
2022-08-18T01:56:38.105Z,27.70
2022-08-18T01:59:06.301Z,27.60
2022-08-18T02:01:38.846Z,27.60
2022-08-18T02:04:34.610Z,27.60
2022-08-18T02:07:06.471Z,27.60
2022-08-18T02:09:33.727Z,27.60
2022-08-18T02:12:01.781Z,27.60
2022-08-18T02:14:31.319Z,27.60
2022-08-18T02:17:02.280Z,27.50
2022-08-18T02:19:34.728Z,27.50
2022-08-18T02:22:01.919Z,27.50
2022-08-18T02:24:28.662Z,27.50
2022-08-18T02:26:55.431Z,27.40
2022-08-18T02:29:22.334Z,27.40
2022-08-18T02:31:49.039Z,27.40
2022-08-18T02:34:17.652Z,27.40
2022-08-18T02:36:44.489Z,27.40
2022-08-18T02:39:11.423Z,27.40
2022-08-18T02:41:38.223Z,27.30
2022-08-18T02:44:07.250Z,27.30
2022-08-18T02:46:34.130Z,27.30
2022-08-18T02:49:01.219Z,27.30
2022-08-18T02:51:28.280Z,27.20
2022-08-18T02:53:55.378Z,27.20
2022-08-18T02:56:39.848Z,27.20
2022-08-18T02:59:27.739Z,27.20
2022-08-18T03:01:56.308Z,27.10
2022-08-18T03:04:29.647Z,27.10
2022-08-18T03:07:03.383Z,27.10
2022-08-18T03:09:31.750Z,27.00
2022-08-18T03:11:58.849Z,26.90
2022-08-18T03:14:26.607Z,26.90
2022-08-18T03:16:55.096Z,26.90
2022-08-18T03:19:26.175Z,26.80
2022-08-18T03:21:53.406Z,26.70
2022-08-18T03:24:22.815Z,26.70
2022-08-18T03:26:52.043Z,26.60
2022-08-18T03:29:20.098Z,26.70
2022-08-18T03:31:48.495Z,26.60
2022-08-18T03:34:17.773Z,26.50
2022-08-18T03:36:45.539Z,26.50
2022-08-18T03:39:13.321Z,26.50
2022-08-18T03:41:58.970Z,26.50
2022-08-18T03:44:33.813Z,26.40
2022-08-18T03:47:03.669Z,26.40
2022-08-18T03:49:31.284Z,26.40
2022-08-18T03:52:00.833Z,26.30
2022-08-18T03:54:29.009Z,26.30
2022-08-18T03:56:55.982Z,26.20
2022-08-18T03:59:25.465Z,27.20
2022-08-18T04:01:54.927Z,26.20
2022-08-18T04:04:25.400Z,26.20
2022-08-18T04:06:55.362Z,26.10
2022-08-18T04:09:24.446Z,26.10
2022-08-18T04:11:51.556Z,26.10
2022-08-18T04:14:21.177Z,26.10
2022-08-18T04:16:49.116Z,26.00
2022-08-18T04:19:26.652Z,26.00
2022-08-18T04:21:56.261Z,26.00
2022-08-18T04:24:24.064Z,26.00
2022-08-18T04:26:51.856Z,26.00
2022-08-18T04:29:23.489Z,26.00
2022-08-18T04:31:51.959Z,25.90
2022-08-18T04:34:20.957Z,25.90
2022-08-18T04:36:50.234Z,26.00
2022-08-18T04:39:16.959Z,26.00
2022-08-18T04:41:44.006Z,26.00
2022-08-18T04:44:12.434Z,26.00
2022-08-18T04:46:42.829Z,26.00
2022-08-18T04:49:11.203Z,26.10
2022-08-18T04:52:36.965Z,26.10
2022-08-18T04:54:28.772Z,26.10
2022-08-18T04:56:55.572Z,26.10
2022-08-18T04:59:22.498Z,26.20
2022-08-18T05:01:49.397Z,26.20
2022-08-18T05:04:17.859Z,26.30
2022-08-18T05:06:45.773Z,26.30
2022-08-18T05:09:16.867Z,26.40
2022-08-18T05:11:51.098Z,26.50
2022-08-18T05:14:18.568Z,26.50
2022-08-18T05:16:48.646Z,26.50
2022-08-18T05:19:25.924Z,26.60
2022-08-18T05:21:59.689Z,26.70
2022-08-18T05:24:33.520Z,26.70
2022-08-18T05:27:04.167Z,26.80
2022-08-18T05:29:41.885Z,26.90
2022-08-18T05:32:37.135Z,27.00
2022-08-18T05:35:26.677Z,26.90
2022-08-18T05:38:39.825Z,27.00
2022-08-18T05:41:08.937Z,27.00
2022-08-18T05:43:51.391Z,27.10
2022-08-18T05:46:22.029Z,27.10
2022-08-18T05:48:48.931Z,27.20
2022-08-18T05:51:22.128Z,27.20
2022-08-18T05:54:07.609Z,27.20
2022-08-18T05:56:49.011Z,27.30
2022-08-18T05:59:37.679Z,27.40
2022-08-18T06:02:12.185Z,27.40
2022-08-18T06:04:46.161Z,27.40
2022-08-18T06:07:18.571Z,27.40
2022-08-18T06:09:51.403Z,27.50
2022-08-18T06:12:27.687Z,27.50
2022-08-18T06:15:21.709Z,27.60
2022-08-18T06:18:22.826Z,27.60
2022-08-18T06:21:22.341Z,27.70
2022-08-18T06:24:06.583Z,27.80
2022-08-18T06:26:56.348Z,27.90
2022-08-18T06:29:47.904Z,28.00
2022-08-18T06:32:41.695Z,28.10
2022-08-18T06:35:27.435Z,28.20
2022-08-18T06:38:38.547Z,28.30
2022-08-18T06:41:40.538Z,28.40
2022-08-18T06:44:12.287Z,28.50
2022-08-18T06:46:48.509Z,28.60
2022-08-18T06:49:28.099Z,28.70
2022-08-18T06:51:54.857Z,28.80
2022-08-18T06:54:22.574Z,28.90
2022-08-18T06:56:52.003Z,29.00
2022-08-18T06:59:26.159Z,29.20
2022-08-18T07:01:57.637Z,29.30
2022-08-18T07:04:42.335Z,29.40
2022-08-18T07:07:39.430Z,29.40
2022-08-18T07:10:30.149Z,29.50
2022-08-18T07:13:07.991Z,29.60
2022-08-18T07:15:35.427Z,29.60
2022-08-18T07:18:07.643Z,29.60
2022-08-18T07:20:48.376Z,29.80
2022-08-18T07:23:31.325Z,29.80
2022-08-18T07:26:16.646Z,29.80
2022-08-18T07:28:46.697Z,29.90
2022-08-18T07:31:26.560Z,30.00
2022-08-18T07:34:07.107Z,30.00
2022-08-18T07:36:41.352Z,30.10
2022-08-18T07:39:15.715Z,30.20
2022-08-18T07:42:10.807Z,30.20
2022-08-18T07:44:40.264Z,30.20
2022-08-18T07:47:16.540Z,30.30
2022-08-18T07:50:13.474Z,30.40
2022-08-18T07:52:46.949Z,30.40
2022-08-18T07:55:35.855Z,30.50
2022-08-18T07:58:21.506Z,30.50
2022-08-18T08:01:06.375Z,30.50
2022-08-18T08:03:50.126Z,30.60
2022-08-18T08:06:23.811Z,30.70
2022-08-18T08:09:07.864Z,30.80
2022-08-18T08:11:49.549Z,30.80
2022-08-18T08:14:39.211Z,30.90
2022-08-18T08:17:23.559Z,30.90
2022-08-18T08:20:08.566Z,31.00
2022-08-18T08:23:07.490Z,31.00
2022-08-18T08:25:50.601Z,31.00
2022-08-18T08:28:55.978Z,31.10
2022-08-18T08:31:36.984Z,31.10
2022-08-18T08:34:14.071Z,31.20
2022-08-18T08:36:44.974Z,31.20
2022-08-18T08:39:18.921Z,31.30
2022-08-18T08:42:31.349Z,31.40
2022-08-18T08:45:01.798Z,31.40
2022-08-18T08:47:57.303Z,31.50
2022-08-18T08:50:29.253Z,31.60
2022-08-18T08:53:03.444Z,31.60
2022-08-18T08:55:34.694Z,31.70
2022-08-18T08:58:20.195Z,31.70
2022-08-18T09:00:48.817Z,31.80
2022-08-18T09:03:30.520Z,31.80
2022-08-18T09:06:00.261Z,31.80
2022-08-18T09:08:50.781Z,31.90
2022-08-18T09:11:49.901Z,31.90
2022-08-18T09:14:42.960Z,31.90
2022-08-18T09:17:41.489Z,32.00
2022-08-18T09:20:49.551Z,32.10
2022-08-18T09:23:21.275Z,32.10
2022-08-18T09:25:54.547Z,32.20
2022-08-18T09:28:30.540Z,32.30
2022-08-18T09:31:03.942Z,32.30
2022-08-18T09:33:43.623Z,32.50
2022-08-18T09:36:33.164Z,32.50
2022-08-18T09:39:37.265Z,32.60
2022-08-18T09:42:12.493Z,32.70
2022-08-18T09:44:48.182Z,32.90
2022-08-18T09:47:21.963Z,32.90
2022-08-18T09:49:53.811Z,33.10
2022-08-18T09:52:25.092Z,33.10
2022-08-18T09:54:59.343Z,33.20
2022-08-18T09:57:42.040Z,33.30
2022-08-18T10:00:12.631Z,33.30
2022-08-18T10:02:40.344Z,33.40
2022-08-18T10:05:19.921Z,33.40
2022-08-18T10:08:08.451Z,33.50
2022-08-18T10:11:01.300Z,33.60
2022-08-18T10:13:43.896Z,33.60
2022-08-18T10:16:31.993Z,33.70
2022-08-18T10:19:39.347Z,33.80
2022-08-18T10:22:10.605Z,33.80
2022-08-18T10:24:51.859Z,33.90
2022-08-18T10:27:36.659Z,33.80
2022-08-18T10:33:58.266Z,34.20
2022-08-18T10:36:48.742Z,34.20
2022-08-18T10:39:23.168Z,34.30
2022-08-18T10:41:58.353Z,34.30
2022-08-18T10:44:29.721Z,34.30
2022-08-18T10:46:59.722Z,34.30
2022-08-18T10:49:31.823Z,34.40
2022-08-18T10:52:29.431Z,34.50
2022-08-18T10:55:22.827Z,34.50
2022-08-18T10:58:01.849Z,34.50
2022-08-18T11:00:47.770Z,34.60
2022-08-18T11:03:51.951Z,34.60
2022-08-18T11:06:27.453Z,34.70
2022-08-18T11:08:58.954Z,34.70
2022-08-18T11:11:40.692Z,34.70
2022-08-18T11:14:40.450Z,34.80
2022-08-18T11:17:40.615Z,34.80
2022-08-18T11:20:13.132Z,34.80
2022-08-18T11:22:51.753Z,34.80
2022-08-18T11:25:24.062Z,34.80
2022-08-18T11:27:52.551Z,34.90
2022-08-18T11:30:21.293Z,34.90
2022-08-18T11:32:59.749Z,34.90
2022-08-18T11:35:51.090Z,35.00
2022-08-18T11:38:23.146Z,35.00
2022-08-18T11:41:13.045Z,35.00
2022-08-18T11:43:43.164Z,35.10
2022-08-18T11:46:42.937Z,35.10
2022-08-18T11:49:45.445Z,35.10
2022-08-18T11:52:35.291Z,35.10
2022-08-18T11:55:14.626Z,35.20
2022-08-18T11:57:58.578Z,35.20
2022-08-18T12:00:36.273Z,35.20
2022-08-18T12:03:38.207Z,35.20
2022-08-18T12:06:26.604Z,35.20
2022-08-18T12:09:02.382Z,35.20
2022-08-18T12:11:40.440Z,35.20
2022-08-18T12:14:29.865Z,35.30
2022-08-18T12:17:01.784Z,35.30
2022-08-18T12:19:31.068Z,35.40
2022-08-18T12:22:00.497Z,35.40
2022-08-18T12:24:36.994Z,35.50
2022-08-18T12:27:21.370Z,35.50
2022-08-18T12:29:50.647Z,35.60
2022-08-18T12:32:46.654Z,35.60
2022-08-18T12:35:09.722Z,35.70
2022-08-18T12:43:12.967Z,36.10
2022-08-18T12:45:40.403Z,36.20
2022-08-18T12:48:08.961Z,36.40
2022-08-18T12:50:49.684Z,36.60
2022-08-18T12:53:17.149Z,36.60
2022-08-18T12:58:32.629Z,36.70
2022-08-18T13:01:03.864Z,36.70
2022-08-18T13:03:31.327Z,36.70
2022-08-18T13:06:02.400Z,36.70
2022-08-18T13:08:33.677Z,36.70
2022-08-18T13:11:15.299Z,36.80
2022-08-18T13:13:52.919Z,36.80
2022-08-18T13:16:38.724Z,36.80
2022-08-18T13:19:08.146Z,36.80
2022-08-18T13:21:41.232Z,36.80
2022-08-18T13:24:09.477Z,36.80
2022-08-18T13:26:39.597Z,36.80
2022-08-18T13:29:10.276Z,36.80
2022-08-18T13:31:38.034Z,36.80
2022-08-18T13:34:11.526Z,36.70
2022-08-18T13:36:45.950Z,36.80
2022-08-18T13:39:17.827Z,36.80
2022-08-18T13:41:49.338Z,36.80
2022-08-18T13:44:18.914Z,36.80
2022-08-18T13:46:47.399Z,36.80
2022-08-18T13:49:16.001Z,36.80
2022-08-18T13:51:59.200Z,36.80
2022-08-18T13:54:33.984Z,36.70
2022-08-18T13:57:03.163Z,36.80
2022-08-18T13:59:32.883Z,36.80
2022-08-18T14:02:01.655Z,36.90
2022-08-18T14:04:29.994Z,36.90
2022-08-18T14:06:59.886Z,36.90
2022-08-18T14:09:37.656Z,36.90
2022-08-18T14:12:21.430Z,36.90
2022-08-18T14:14:52.583Z,36.90
2022-08-18T14:17:22.579Z,36.90
2022-08-18T14:20:15.378Z,36.90
2022-08-18T14:23:21.984Z,36.90
2022-08-18T14:26:09.637Z,36.90
2022-08-18T14:28:38.238Z,36.80
2022-08-18T14:31:08.821Z,36.90
2022-08-18T14:33:50.954Z,36.90
2022-08-18T14:36:19.449Z,37.00
2022-08-18T14:38:46.164Z,37.00
2022-08-18T14:41:18.073Z,37.10
2022-08-18T14:43:55.634Z,37.10
2022-08-18T14:46:32.605Z,37.20
2022-08-18T14:49:04.139Z,37.30
2022-08-18T14:51:31.787Z,37.30
2022-08-18T14:54:01.638Z,37.30
2022-08-18T14:56:29.731Z,37.30
2022-08-18T14:59:00.521Z,37.30
2022-08-18T15:01:27.405Z,37.30
2022-08-18T15:03:54.447Z,37.30
2022-08-18T15:06:22.834Z,37.20
2022-08-18T15:08:56.937Z,37.20
2022-08-18T15:11:24.692Z,37.10
2022-08-18T15:13:55.108Z,36.80
2022-08-18T15:16:31.570Z,36.60
2022-08-18T15:18:59.587Z,36.50
2022-08-18T15:21:47.000Z,36.30
2022-08-18T15:24:34.095Z,36.10
2022-08-18T15:27:10.366Z,35.90
2022-08-18T15:29:46.394Z,35.70
2022-08-18T15:32:15.260Z,35.50
2022-08-18T15:34:46.236Z,35.30
2022-08-18T15:37:19.475Z,35.10
2022-08-18T15:39:55.498Z,35.00
2022-08-18T15:42:23.887Z,34.90
2022-08-18T15:44:52.590Z,34.70
2022-08-18T15:47:20.995Z,34.60
2022-08-18T15:49:48.497Z,34.50
2022-08-18T15:52:15.276Z,34.50
2022-08-18T15:54:44.624Z,34.40
2022-08-18T15:57:38.555Z,34.30
2022-08-18T16:00:05.362Z,34.30
2022-08-18T16:02:32.228Z,34.20
2022-08-18T16:05:09.026Z,34.10
2022-08-18T16:07:41.291Z,34.00
2022-08-18T16:10:12.781Z,33.90
2022-08-18T16:12:45.634Z,33.80
2022-08-18T16:15:19.709Z,33.80
2022-08-18T16:17:52.482Z,33.70
2022-08-18T16:20:20.383Z,33.50
2022-08-18T16:22:48.066Z,33.60
2022-08-18T16:25:16.433Z,33.50
2022-08-18T16:27:43.582Z,33.40
2022-08-18T16:30:14.517Z,33.30
2022-08-18T16:32:41.346Z,33.40
2022-08-18T16:35:08.801Z,33.30
2022-08-18T16:37:35.494Z,33.20
2022-08-18T16:40:02.290Z,33.10
2022-08-18T16:42:33.066Z,33.00
2022-08-18T16:45:00.841Z,32.90
2022-08-18T16:47:28.082Z,32.70
2022-08-18T16:49:58.540Z,32.60
2022-08-18T16:52:27.081Z,32.40
2022-08-18T16:54:57.260Z,32.00
2022-08-18T16:57:55.056Z,31.50
2022-08-18T17:00:42.821Z,31.00
2022-08-18T17:03:29.556Z,30.20
2022-08-18T17:06:01.828Z,29.50
2022-08-18T17:08:28.759Z,28.90
2022-08-18T17:10:55.623Z,28.40
2022-08-18T17:13:23.272Z,28.00
2022-08-18T17:15:50.909Z,27.60
2022-08-18T17:18:19.869Z,27.20
2022-08-18T17:20:46.927Z,26.90
2022-08-18T17:23:14.398Z,26.60
2022-08-18T17:25:41.157Z,26.30
2022-08-18T17:28:10.165Z,26.20
2022-08-18T17:30:42.622Z,26.00
2022-08-18T17:33:14.967Z,25.80
2022-08-18T17:35:44.341Z,25.70
2022-08-18T17:38:16.646Z,25.60
2022-08-18T17:40:47.969Z,25.50
2022-08-18T17:43:20.041Z,25.40
2022-08-18T17:45:57.415Z,25.30
2022-08-18T17:48:29.134Z,25.30
2022-08-18T17:51:25.101Z,25.10
2022-08-18T17:53:51.814Z,25.20
2022-08-18T17:56:35.258Z,25.10
2022-08-18T17:59:45.740Z,25.10
2022-08-18T18:02:38.784Z,25.10
2022-08-18T18:05:09.398Z,25.10
2022-08-18T18:07:40.100Z,25.10
2022-08-18T18:10:14.240Z,25.10
2022-08-18T18:12:41.552Z,25.10
2022-08-18T18:15:12.047Z,25.10
2022-08-18T18:17:41.409Z,25.10
2022-08-18T18:20:38.050Z,25.20
2022-08-18T18:23:27.916Z,25.20
2022-08-18T18:25:57.906Z,25.20
2022-08-18T18:28:31.704Z,25.30
2022-08-18T18:31:15.930Z,25.30
2022-08-18T18:33:44.212Z,25.30
2022-08-18T18:36:11.526Z,25.40
2022-08-18T18:38:46.052Z,25.40
2022-08-18T18:41:12.737Z,25.40
2022-08-18T18:43:46.848Z,25.30
2022-08-18T18:46:18.977Z,25.40
2022-08-18T18:49:00.414Z,25.50
2022-08-18T18:52:25.462Z,25.40
2022-08-18T18:55:05.861Z,25.50
2022-08-18T18:58:10.757Z,25.50
2022-08-18T19:00:56.176Z,25.40
2022-08-18T19:03:47.771Z,25.40
2022-08-18T19:09:23.890Z,25.40
2022-08-18T19:12:22.058Z,25.40
2022-08-18T19:15:00.049Z,25.40
2022-08-18T19:17:42.781Z,25.40
2022-08-18T19:20:42.935Z,25.40
2022-08-18T19:23:53.853Z,25.40
2022-08-18T19:26:27.696Z,25.40
2022-08-18T19:29:13.134Z,25.40
2022-08-18T19:32:14.552Z,25.40
2022-08-18T19:34:51.532Z,25.40
2022-08-18T19:37:36.878Z,25.40
2022-08-18T19:40:20.268Z,25.50
2022-08-18T19:43:26.927Z,25.50
2022-08-18T19:46:27.707Z,25.50
2022-08-18T19:49:17.850Z,25.50
2022-08-18T19:51:49.244Z,25.60
2022-08-18T19:54:50.065Z,25.60
2022-08-18T19:57:35.565Z,25.60
2022-08-18T20:00:38.929Z,25.70
2022-08-18T20:03:27.493Z,25.70
2022-08-18T20:06:36.081Z,25.70
2022-08-18T20:09:39.924Z,25.70
2022-08-18T20:13:02.856Z,25.70
2022-08-18T20:15:31.121Z,25.70
2022-08-18T20:17:58.131Z,25.80
2022-08-18T20:20:29.708Z,25.80
2022-08-18T20:22:59.030Z,25.80
2022-08-18T20:25:48.129Z,25.70
2022-08-18T20:28:33.615Z,25.80
2022-08-18T20:31:16.651Z,25.80
2022-08-18T20:34:14.191Z,25.80
2022-08-18T20:36:44.930Z,25.80
2022-08-18T20:39:47.732Z,25.80
2022-08-18T20:42:24.938Z,25.80
2022-08-18T20:45:06.632Z,25.80
2022-08-18T20:48:18.628Z,25.80
2022-08-18T20:50:57.535Z,25.80
2022-08-18T20:54:02.561Z,25.90
2022-08-18T20:56:43.969Z,25.90
2022-08-18T20:59:20.446Z,25.90
2022-08-18T21:02:24.312Z,25.90
2022-08-18T21:04:56.399Z,25.90
2022-08-18T21:07:36.529Z,25.80
2022-08-18T21:10:26.365Z,25.90
2022-08-18T21:12:58.546Z,25.90
2022-08-18T21:15:37.023Z,25.80
2022-08-18T21:18:21.982Z,25.80
2022-08-18T21:20:54.837Z,25.80
2022-08-18T21:23:36.223Z,25.80
2022-08-18T21:26:15.187Z,25.70
2022-08-18T21:28:48.151Z,25.70
2022-08-18T21:31:44.395Z,25.50
2022-08-18T21:34:45.021Z,25.50
2022-08-18T21:37:16.012Z,25.30
2022-08-18T21:40:05.223Z,25.30
2022-08-18T21:42:44.977Z,25.30
2022-08-18T21:45:22.469Z,25.20
2022-08-18T21:48:05.775Z,25.20
2022-08-18T21:50:35.082Z,25.20
2022-08-18T21:53:18.118Z,25.10
2022-08-18T21:55:50.037Z,25.10
2022-08-18T21:58:42.750Z,25.00
2022-08-18T22:01:22.699Z,25.00
2022-08-18T22:04:00.273Z,25.00
2022-08-18T22:06:40.260Z,24.90
2022-08-18T22:09:28.591Z,24.90
2022-08-18T22:12:49.451Z,24.90
2022-08-18T22:15:27.098Z,24.90
2022-08-18T22:18:05.606Z,24.90
2022-08-18T22:20:56.560Z,24.90
2022-08-18T22:23:54.198Z,24.90
2022-08-18T22:26:35.711Z,25.00
2022-08-18T22:29:33.354Z,24.90
2022-08-18T22:32:02.451Z,24.90
2022-08-18T22:34:34.215Z,24.90
2022-08-18T22:37:10.060Z,24.90
2022-08-18T22:39:54.281Z,24.90
2022-08-18T22:42:24.576Z,24.90
2022-08-18T22:44:52.329Z,24.90
2022-08-18T22:47:20.133Z,24.90
2022-08-18T22:49:47.665Z,24.90
2022-08-18T22:52:29.555Z,24.90
2022-08-18T22:54:59.417Z,24.90
2022-08-18T22:57:31.503Z,24.80
2022-08-18T23:00:00.977Z,24.90
2022-08-18T23:02:27.804Z,24.80
2022-08-18T23:04:54.556Z,24.80
2022-08-18T23:07:23.046Z,24.80
2022-08-18T23:09:49.833Z,24.70
2022-08-18T23:12:16.830Z,24.70
2022-08-18T23:14:46.457Z,24.80
2022-08-18T23:17:14.103Z,24.80
2022-08-18T23:19:42.671Z,24.70
2022-08-18T23:22:10.653Z,24.70
2022-08-18T23:24:39.069Z,24.70
2022-08-18T23:27:07.861Z,24.70
2022-08-18T23:29:36.684Z,24.60
2022-08-18T23:32:05.835Z,24.60
2022-08-18T23:34:34.189Z,24.60
2022-08-18T23:37:04.306Z,24.70
2022-08-18T23:39:33.713Z,24.60
2022-08-18T23:42:03.058Z,24.60
2022-08-18T23:44:31.186Z,24.70
2022-08-18T23:46:59.992Z,24.70
2022-08-18T23:49:30.296Z,24.70
2022-08-18T23:51:59.715Z,24.60
2022-08-18T23:54:33.093Z,24.70
2022-08-18T23:57:00.580Z,24.70
2022-08-18T23:59:28.810Z,24.60
